South Bend Regional Airport
KSBN : now visible

Airfield :











YOU CAN JOIN US ON...

 
LOGIN :

Register | Disclaimer

   EN    FR    IT 

 









Legend :    VFR   Marginal VFR   IFR   Intensive IFR   Very Intensive IFR
Visi :
Ceiling :
>= 8 km
>= 3000ft
5 to 8 km
1000 to 3000 ft
1500m to 5 km
500 to 1000 ft
800 to 1500m
200 to 500 ft
< 800m
< 200 ft
Symbols :   Thunderstorms  Fog  Heavy snow  Heavy precipitations  Wind > 20 kt






- Airport Elevation : 799 ft
- IATA code : SBN


KSBN - South Bend Regional

CURRENT METAR :
  • 041854Z 34011G20KT 10SM FEW041 23/11 A3003 RMK AO2 SLP166 T02280111

EXPIRED METARs :
  • 041754Z 35011G20KT 320V020 10SM FEW038 22/11 A3003 RMK AO2 SLP167 T02170111 10222 20167 50000
  • 041654Z 34012G20KT 10SM SCT036 22/11 A3003 RMK AO2 SLP166 T02170111

TAF KSBN
Valid from the 04 at 18:00 until the 05 at 18:00 UTC


041737Z 0418/0518 33011G18KT P6SM SCT035
FM050000 32005KT P6SM SCT250
KZAU FIR / North America



MET'MAP, your aeronautical weather chart ! - Copyright ORBIFLY December 2007 - Disclaimer

ORBIFLY MET'MAP TEAM :

Programming & Development : Alexandra Zaïnal
Concept & original design : Baudouin d'Aumeries
Assistance for programming : Marc-Olivier Méhu
Technical & hardware support : Manuel Goepfert

Contact : metmap@orbifly.com




SOURCES & CREDITS :

   NOAA       Earth
Advisory